Terminal Aerodrome Forecast
Issued by NWS

Home | Current Version | Previous Version | Text Only | Print | Product List | Glossary On
Versions: 1 2 3 4 5 6 7 8 9 10 11 12 13 14 15 16 17 18 19 20
729
FTUS45 KPSR 250255 AAB
TAFIPL
TAF AMD
KIPL 250255Z 2503/2524 15012G19KT P6SM SCT100 BKN180
     FM250500 VRB05KT P6SM SCT100 BKN180
     FM250800 15011KT P6SM FEW120 BKN250=

USA.gov is the U.S. government's official web portal to all federal, state and local government web resources and services.